sensor_id;sensor_type;location;lat;lon;timestamp;P1;durP1;ratioP1;P2;durP2;ratioP2
8861;SDS011;4799;50.996;4.754;2023-06-14T00:01:17;6.27;;;5.67;;
8861;SDS011;4799;50.996;4.754;2023-06-14T00:03:45;7.30;;;6.20;;
8861;SDS011;4799;50.996;4.754;2023-06-14T00:06:12;7.23;;;6.27;;
8861;SDS011;4799;50.996;4.754;2023-06-14T00:08:38;7.50;;;6.37;;
8861;SDS011;4799;50.996;4.754;2023-06-14T00:11:05;7.37;;;6.67;;
8861;SDS011;4799;50.996;4.754;2023-06-14T00:13:31;7.93;;;6.00;;
8861;SDS011;4799;50.996;4.754;2023-06-14T00:15:58;6.87;;;6.00;;
8861;SDS011;4799;50.996;4.754;2023-06-14T00:18:24;6.37;;;5.77;;
8861;SDS011;4799;50.996;4.754;2023-06-14T00:20:50;6.80;;;6.20;;
8861;SDS011;4799;50.996;4.754;2023-06-14T00:23:17;6.43;;;5.70;;
8861;SDS011;4799;50.996;4.754;2023-06-14T00:25:43;7.43;;;5.93;;
8861;SDS011;4799;50.996;4.754;2023-06-14T00:28:08;6.60;;;6.10;;
8861;SDS011;4799;50.996;4.754;2023-06-14T00:30:34;7.57;;;6.20;;
8861;SDS011;4799;50.996;4.754;2023-06-14T00:33:00;6.80;;;6.20;;
8861;SDS011;4799;50.996;4.754;2023-06-14T00:35:26;7.67;;;6.97;;
8861;SDS011;4799;50.996;4.754;2023-06-14T00:37:52;6.87;;;6.20;;
8861;SDS011;4799;50.996;4.754;2023-06-14T00:40:19;7.73;;;6.73;;
8861;SDS011;4799;50.996;4.754;2023-06-14T00:42:46;6.83;;;6.20;;
8861;SDS011;4799;50.996;4.754;2023-06-14T00:45:12;7.20;;;6.50;;
8861;SDS011;4799;50.996;4.754;2023-06-14T00:47:38;6.97;;;6.27;;
8861;SDS011;4799;50.996;4.754;2023-06-14T00:50:07;6.80;;;6.23;;
8861;SDS011;4799;50.996;4.754;2023-06-14T00:52:34;7.30;;;6.70;;
8861;SDS011;4799;50.996;4.754;2023-06-14T00:55:00;7.23;;;6.50;;
8861;SDS011;4799;50.996;4.754;2023-06-14T00:57:26;7.80;;;6.97;;
8861;SDS011;4799;50.996;4.754;2023-06-14T00:59:52;9.13;;;6.60;;
8861;SDS011;4799;50.996;4.754;2023-06-14T01:02:19;7.67;;;6.77;;
8861;SDS011;4799;50.996;4.754;2023-06-14T01:04:46;7.20;;;6.60;;
8861;SDS011;4799;50.996;4.754;2023-06-14T01:15:07;7.07;;;6.47;;
8861;SDS011;4799;50.996;4.754;2023-06-14T01:17:34;8.27;;;6.57;;
8861;SDS011;4799;50.996;4.754;2023-06-14T01:20:01;7.30;;;6.70;;
8861;SDS011;4799;50.996;4.754;2023-06-14T01:22:28;8.87;;;7.23;;
8861;SDS011;4799;50.996;4.754;2023-06-14T01:24:54;7.70;;;7.10;;
8861;SDS011;4799;50.996;4.754;2023-06-14T01:27:23;8.60;;;7.80;;
8861;SDS011;4799;50.996;4.754;2023-06-14T01:29:53;8.63;;;7.40;;
8861;SDS011;4799;50.996;4.754;2023-06-14T01:32:22;8.27;;;7.57;;
8861;SDS011;4799;50.996;4.754;2023-06-14T01:34:50;7.80;;;7.10;;
8861;SDS011;4799;50.996;4.754;2023-06-14T01:37:16;8.03;;;7.33;;
8861;SDS011;4799;50.996;4.754;2023-06-14T01:39:43;8.00;;;7.20;;
8861;SDS011;4799;50.996;4.754;2023-06-14T01:42:10;8.60;;;7.80;;
8861;SDS011;4799;50.996;4.754;2023-06-14T01:44:37;10.87;;;7.50;;
8861;SDS011;4799;50.996;4.754;2023-06-14T01:47:03;8.00;;;7.20;;
8861;SDS011;4799;50.996;4.754;2023-06-14T01:49:29;8.80;;;8.00;;
8861;SDS011;4799;50.996;4.754;2023-06-14T01:51:58;8.60;;;7.80;;
8861;SDS011;4799;50.996;4.754;2023-06-14T01:54:23;8.60;;;7.70;;
8861;SDS011;4799;50.996;4.754;2023-06-14T01:56:50;8.40;;;7.50;;
8861;SDS011;4799;50.996;4.754;2023-06-14T01:59:16;8.33;;;7.60;;
8861;SDS011;4799;50.996;4.754;2023-06-14T02:01:42;9.23;;;8.27;;
8861;SDS011;4799;50.996;4.754;2023-06-14T02:04:08;10.13;;;8.43;;
8861;SDS011;4799;50.996;4.754;2023-06-14T02:06:33;8.33;;;7.63;;
8861;SDS011;4799;50.996;4.754;2023-06-14T02:09:00;8.83;;;7.93;;
8861;SDS011;4799;50.996;4.754;2023-06-14T02:11:27;8.80;;;8.00;;
8861;SDS011;4799;50.996;4.754;2023-06-14T02:13:53;8.57;;;7.73;;
8861;SDS011;4799;50.996;4.754;2023-06-14T02:16:20;9.00;;;8.20;;
8861;SDS011;4799;50.996;4.754;2023-06-14T02:18:46;9.13;;;8.33;;
8861;SDS011;4799;50.996;4.754;2023-06-14T02:21:12;9.47;;;8.53;;
8861;SDS011;4799;50.996;4.754;2023-06-14T02:23:37;8.43;;;7.73;;
8861;SDS011;4799;50.996;4.754;2023-06-14T02:26:03;11.47;;;8.10;;
8861;SDS011;4799;50.996;4.754;2023-06-14T02:28:29;8.87;;;7.90;;
8861;SDS011;4799;50.996;4.754;2023-06-14T02:30:54;9.47;;;7.97;;
8861;SDS011;4799;50.996;4.754;2023-06-14T02:33:20;8.97;;;8.07;;
8861;SDS011;4799;50.996;4.754;2023-06-14T02:35:47;8.07;;;7.37;;
8861;SDS011;4799;50.996;4.754;2023-06-14T02:38:12;8.67;;;7.83;;
8861;SDS011;4799;50.996;4.754;2023-06-14T02:40:38;8.67;;;7.80;;
8861;SDS011;4799;50.996;4.754;2023-06-14T02:43:04;8.77;;;7.43;;
8861;SDS011;4799;50.996;4.754;2023-06-14T02:45:29;8.30;;;7.50;;
8861;SDS011;4799;50.996;4.754;2023-06-14T02:47:55;8.40;;;7.60;;
8861;SDS011;4799;50.996;4.754;2023-06-14T02:50:21;8.17;;;7.47;;
8861;SDS011;4799;50.996;4.754;2023-06-14T02:52:48;7.83;;;7.13;;
8861;SDS011;4799;50.996;4.754;2023-06-14T02:55:14;8.20;;;7.53;;
8861;SDS011;4799;50.996;4.754;2023-06-14T02:57:40;7.47;;;6.80;;
8861;SDS011;4799;50.996;4.754;2023-06-14T03:00:06;8.30;;;7.63;;
8861;SDS011;4799;50.996;4.754;2023-06-14T03:02:35;8.40;;;7.53;;
8861;SDS011;4799;50.996;4.754;2023-06-14T03:05:00;8.13;;;7.33;;
8861;SDS011;4799;50.996;4.754;2023-06-14T03:07:28;7.63;;;6.93;;
8861;SDS011;4799;50.996;4.754;2023-06-14T03:09:54;8.90;;;8.00;;
8861;SDS011;4799;50.996;4.754;2023-06-14T03:12:20;8.43;;;7.63;;
8861;SDS011;4799;50.996;4.754;2023-06-14T03:14:46;8.73;;;7.83;;
8861;SDS011;4799;50.996;4.754;2023-06-14T03:17:12;8.40;;;7.60;;
8861;SDS011;4799;50.996;4.754;2023-06-14T03:19:37;8.10;;;7.33;;
8861;SDS011;4799;50.996;4.754;2023-06-14T03:22:03;8.23;;;7.37;;
8861;SDS011;4799;50.996;4.754;2023-06-14T03:24:29;9.70;;;7.67;;
8861;SDS011;4799;50.996;4.754;2023-06-14T03:27:01;8.30;;;7.17;;
8861;SDS011;4799;50.996;4.754;2023-06-14T03:29:27;8.40;;;7.60;;
8861;SDS011;4799;50.996;4.754;2023-06-14T03:32:00;7.63;;;7.03;;
8861;SDS011;4799;50.996;4.754;2023-06-14T03:34:26;9.47;;;7.83;;
8861;SDS011;4799;50.996;4.754;2023-06-14T03:36:52;7.90;;;7.27;;
8861;SDS011;4799;50.996;4.754;2023-06-14T03:39:18;9.87;;;7.27;;
8861;SDS011;4799;50.996;4.754;2023-06-14T03:41:45;8.30;;;7.50;;
8861;SDS011;4799;50.996;4.754;2023-06-14T03:44:11;7.17;;;6.57;;
8861;SDS011;4799;50.996;4.754;2023-06-14T03:46:36;8.23;;;7.47;;
8861;SDS011;4799;50.996;4.754;2023-06-14T03:49:02;8.20;;;7.50;;
8861;SDS011;4799;50.996;4.754;2023-06-14T03:51:28;8.83;;;7.70;;
8861;SDS011;4799;50.996;4.754;2023-06-14T03:53:54;11.80;;;7.50;;
8861;SDS011;4799;50.996;4.754;2023-06-14T03:56:21;8.47;;;7.67;;
8861;SDS011;4799;50.996;4.754;2023-06-14T03:58:46;7.97;;;7.27;;
8861;SDS011;4799;50.996;4.754;2023-06-14T04:01:12;8.47;;;7.73;;
8861;SDS011;4799;50.996;4.754;2023-06-14T04:03:39;7.80;;;7.10;;
8861;SDS011;4799;50.996;4.754;2023-06-14T04:06:05;9.93;;;7.97;;
8861;SDS011;4799;50.996;4.754;2023-06-14T04:08:31;7.93;;;7.33;;
8861;SDS011;4799;50.996;4.754;2023-06-14T04:10:57;7.93;;;7.23;;
8861;SDS011;4799;50.996;4.754;2023-06-14T04:13:23;8.10;;;7.30;;
8861;SDS011;4799;50.996;4.754;2023-06-14T04:15:48;9.17;;;7.40;;
8861;SDS011;4799;50.996;4.754;2023-06-14T04:18:14;8.20;;;7.50;;
8861;SDS011;4799;50.996;4.754;2023-06-14T04:20:40;8.03;;;7.23;;
8861;SDS011;4799;50.996;4.754;2023-06-14T04:23:14;9.23;;;7.13;;
8861;SDS011;4799;50.996;4.754;2023-06-14T04:25:42;7.97;;;7.27;;
8861;SDS011;4799;50.996;4.754;2023-06-14T04:28:13;8.07;;;7.30;;
8861;SDS011;4799;50.996;4.754;2023-06-14T04:30:43;7.80;;;7.10;;
8861;SDS011;4799;50.996;4.754;2023-06-14T04:33:12;8.93;;;7.17;;
8861;SDS011;4799;50.996;4.754;2023-06-14T04:35:38;8.03;;;7.30;;
8861;SDS011;4799;50.996;4.754;2023-06-14T04:38:05;9.33;;;6.93;;
8861;SDS011;4799;50.996;4.754;2023-06-14T04:40:35;7.93;;;7.13;;
8861;SDS011;4799;50.996;4.754;2023-06-14T04:43:08;9.50;;;6.97;;
8861;SDS011;4799;50.996;4.754;2023-06-14T04:45:37;7.90;;;7.13;;
8861;SDS011;4799;50.996;4.754;2023-06-14T04:48:04;8.03;;;7.20;;
8861;SDS011;4799;50.996;4.754;2023-06-14T04:50:31;7.97;;;7.07;;
8861;SDS011;4799;50.996;4.754;2023-06-14T04:52:58;7.47;;;6.77;;
8861;SDS011;4799;50.996;4.754;2023-06-14T04:55:24;8.37;;;7.57;;
8861;SDS011;4799;50.996;4.754;2023-06-14T04:57:51;8.57;;;6.83;;
8861;SDS011;4799;50.996;4.754;2023-06-14T05:00:20;8.67;;;7.40;;
8861;SDS011;4799;50.996;4.754;2023-06-14T05:02:46;8.00;;;7.27;;
8861;SDS011;4799;50.996;4.754;2023-06-14T05:05:14;8.87;;;7.27;;
8861;SDS011;4799;50.996;4.754;2023-06-14T05:07:40;8.63;;;7.10;;
8861;SDS011;4799;50.996;4.754;2023-06-14T05:10:06;8.50;;;7.70;;
8861;SDS011;4799;50.996;4.754;2023-06-14T05:12:32;9.30;;;7.20;;
8861;SDS011;4799;50.996;4.754;2023-06-14T05:14:59;7.83;;;6.93;;
8861;SDS011;4799;50.996;4.754;2023-06-14T05:17:25;8.67;;;7.77;;
8861;SDS011;4799;50.996;4.754;2023-06-14T05:19:53;8.60;;;7.27;;
8861;SDS011;4799;50.996;4.754;2023-06-14T05:22:20;8.67;;;7.27;;
8861;SDS011;4799;50.996;4.754;2023-06-14T05:24:46;7.77;;;6.93;;
8861;SDS011;4799;50.996;4.754;2023-06-14T05:27:13;8.00;;;7.20;;
8861;SDS011;4799;50.996;4.754;2023-06-14T05:29:39;8.07;;;7.27;;
8861;SDS011;4799;50.996;4.754;2023-06-14T05:32:05;8.10;;;7.30;;
8861;SDS011;4799;50.996;4.754;2023-06-14T05:34:31;9.83;;;7.40;;
8861;SDS011;4799;50.996;4.754;2023-06-14T05:36:57;9.27;;;7.40;;
8861;SDS011;4799;50.996;4.754;2023-06-14T05:39:22;9.33;;;7.50;;
8861;SDS011;4799;50.996;4.754;2023-06-14T05:41:49;7.87;;;7.17;;
8861;SDS011;4799;50.996;4.754;2023-06-14T05:44:15;8.60;;;7.80;;
8861;SDS011;4799;50.996;4.754;2023-06-14T05:46:40;8.63;;;7.83;;
8861;SDS011;4799;50.996;4.754;2023-06-14T05:49:06;11.33;;;7.43;;
8861;SDS011;4799;50.996;4.754;2023-06-14T05:51:32;8.17;;;7.40;;
8861;SDS011;4799;50.996;4.754;2023-06-14T05:53:58;10.97;;;8.27;;
8861;SDS011;4799;50.996;4.754;2023-06-14T05:56:24;9.03;;;7.90;;
8861;SDS011;4799;50.996;4.754;2023-06-14T05:58:51;8.97;;;8.03;;
8861;SDS011;4799;50.996;4.754;2023-06-14T06:01:16;9.80;;;7.90;;
8861;SDS011;4799;50.996;4.754;2023-06-14T06:03:42;8.60;;;7.77;;
8861;SDS011;4799;50.996;4.754;2023-06-14T06:06:11;9.53;;;7.90;;
8861;SDS011;4799;50.996;4.754;2023-06-14T06:08:37;8.43;;;7.67;;
8861;SDS011;4799;50.996;4.754;2023-06-14T06:11:03;8.83;;;7.93;;
8861;SDS011;4799;50.996;4.754;2023-06-14T06:13:29;11.87;;;8.77;;
8861;SDS011;4799;50.996;4.754;2023-06-14T06:15:55;10.33;;;8.07;;
8861;SDS011;4799;50.996;4.754;2023-06-14T06:18:21;8.73;;;7.83;;
8861;SDS011;4799;50.996;4.754;2023-06-14T06:20:47;9.10;;;8.20;;
8861;SDS011;4799;50.996;4.754;2023-06-14T06:23:13;8.83;;;7.43;;
8861;SDS011;4799;50.996;4.754;2023-06-14T06:25:38;10.00;;;8.03;;
8861;SDS011;4799;50.996;4.754;2023-06-14T06:28:06;10.77;;;8.20;;
8861;SDS011;4799;50.996;4.754;2023-06-14T06:30:31;8.70;;;7.93;;
8861;SDS011;4799;50.996;4.754;2023-06-14T06:32:57;10.23;;;8.40;;
8861;SDS011;4799;50.996;4.754;2023-06-14T06:35:23;9.93;;;8.07;;
8861;SDS011;4799;50.996;4.754;2023-06-14T06:37:49;8.63;;;7.80;;
8861;SDS011;4799;50.996;4.754;2023-06-14T06:40:15;9.30;;;7.33;;
8861;SDS011;4799;50.996;4.754;2023-06-14T06:42:41;8.63;;;7.20;;
8861;SDS011;4799;50.996;4.754;2023-06-14T06:45:06;9.83;;;7.93;;
8861;SDS011;4799;50.996;4.754;2023-06-14T06:47:32;8.67;;;7.10;;
8861;SDS011;4799;50.996;4.754;2023-06-14T06:49:58;7.80;;;7.10;;
8861;SDS011;4799;50.996;4.754;2023-06-14T06:52:24;10.83;;;7.30;;
8861;SDS011;4799;50.996;4.754;2023-06-14T06:54:49;8.07;;;7.10;;
8861;SDS011;4799;50.996;4.754;2023-06-14T06:57:19;10.23;;;7.20;;
8861;SDS011;4799;50.996;4.754;2023-06-14T06:59:48;9.37;;;7.40;;
8861;SDS011;4799;50.996;4.754;2023-06-14T07:02:14;8.40;;;7.30;;
8861;SDS011;4799;50.996;4.754;2023-06-14T07:04:40;11.83;;;7.50;;
8861;SDS011;4799;50.996;4.754;2023-06-14T07:07:06;10.07;;;7.67;;
8861;SDS011;4799;50.996;4.754;2023-06-14T07:09:34;8.30;;;7.23;;
8861;SDS011;4799;50.996;4.754;2023-06-14T07:12:00;8.23;;;6.93;;
8861;SDS011;4799;50.996;4.754;2023-06-14T07:14:26;8.53;;;6.90;;
8861;SDS011;4799;50.996;4.754;2023-06-14T07:16:52;11.90;;;7.23;;
8861;SDS011;4799;50.996;4.754;2023-06-14T07:19:18;7.93;;;6.70;;
8861;SDS011;4799;50.996;4.754;2023-06-14T07:21:44;7.53;;;6.80;;
8861;SDS011;4799;50.996;4.754;2023-06-14T07:24:09;8.07;;;6.90;;
8861;SDS011;4799;50.996;4.754;2023-06-14T07:26:35;7.80;;;7.00;;
8861;SDS011;4799;50.996;4.754;2023-06-14T07:29:01;8.03;;;7.23;;
8861;SDS011;4799;50.996;4.754;2023-06-14T07:31:27;8.27;;;7.33;;
8861;SDS011;4799;50.996;4.754;2023-06-14T07:33:53;9.27;;;7.63;;
8861;SDS011;4799;50.996;4.754;2023-06-14T07:36:19;8.37;;;7.27;;
8861;SDS011;4799;50.996;4.754;2023-06-14T07:38:45;10.67;;;7.20;;
8861;SDS011;4799;50.996;4.754;2023-06-14T07:41:11;8.43;;;6.90;;
8861;SDS011;4799;50.996;4.754;2023-06-14T07:43:37;10.87;;;7.80;;
8861;SDS011;4799;50.996;4.754;2023-06-14T07:46:02;9.33;;;6.90;;
8861;SDS011;4799;50.996;4.754;2023-06-14T07:48:29;8.23;;;7.43;;
8861;SDS011;4799;50.996;4.754;2023-06-14T07:50:54;8.03;;;7.17;;
8861;SDS011;4799;50.996;4.754;2023-06-14T07:53:20;7.57;;;6.87;;
8861;SDS011;4799;50.996;4.754;2023-06-14T07:55:46;8.13;;;7.00;;
8861;SDS011;4799;50.996;4.754;2023-06-14T07:58:13;8.33;;;7.50;;
8861;SDS011;4799;50.996;4.754;2023-06-14T08:00:39;7.27;;;6.50;;
8861;SDS011;4799;50.996;4.754;2023-06-14T08:03:05;8.80;;;7.03;;
8861;SDS011;4799;50.996;4.754;2023-06-14T08:05:30;9.67;;;6.70;;
8861;SDS011;4799;50.996;4.754;2023-06-14T08:07:56;8.60;;;6.60;;
8861;SDS011;4799;50.996;4.754;2023-06-14T08:10:22;7.50;;;6.67;;
8861;SDS011;4799;50.996;4.754;2023-06-14T08:12:48;8.00;;;7.17;;
8861;SDS011;4799;50.996;4.754;2023-06-14T08:15:15;7.77;;;7.03;;
8861;SDS011;4799;50.996;4.754;2023-06-14T08:17:44;7.00;;;6.10;;
8861;SDS011;4799;50.996;4.754;2023-06-14T08:20:10;7.30;;;6.60;;
8861;SDS011;4799;50.996;4.754;2023-06-14T08:22:37;7.63;;;6.33;;
8861;SDS011;4799;50.996;4.754;2023-06-14T08:25:03;7.60;;;6.60;;
8861;SDS011;4799;50.996;4.754;2023-06-14T08:27:29;7.77;;;6.80;;
8861;SDS011;4799;50.996;4.754;2023-06-14T08:29:55;11.50;;;6.80;;
8861;SDS011;4799;50.996;4.754;2023-06-14T08:32:22;11.17;;;6.87;;
8861;SDS011;4799;50.996;4.754;2023-06-14T08:34:48;7.80;;;6.63;;
8861;SDS011;4799;50.996;4.754;2023-06-14T08:37:13;6.93;;;6.17;;
8861;SDS011;4799;50.996;4.754;2023-06-14T08:39:39;7.83;;;6.93;;
8861;SDS011;4799;50.996;4.754;2023-06-14T08:42:05;7.40;;;6.63;;
8861;SDS011;4799;50.996;4.754;2023-06-14T08:44:34;9.03;;;7.07;;
8861;SDS011;4799;50.996;4.754;2023-06-14T08:47:00;9.10;;;7.30;;
8861;SDS011;4799;50.996;4.754;2023-06-14T08:49:26;7.47;;;6.77;;
8861;SDS011;4799;50.996;4.754;2023-06-14T08:51:53;7.40;;;6.67;;
8861;SDS011;4799;50.996;4.754;2023-06-14T08:54:25;7.07;;;6.30;;
8861;SDS011;4799;50.996;4.754;2023-06-14T08:56:55;6.57;;;5.90;;
8861;SDS011;4799;50.996;4.754;2023-06-14T08:59:25;7.37;;;6.07;;
8861;SDS011;4799;50.996;4.754;2023-06-14T09:01:52;8.47;;;6.50;;
8861;SDS011;4799;50.996;4.754;2023-06-14T09:04:20;6.67;;;6.07;;
8861;SDS011;4799;50.996;4.754;2023-06-14T09:06:47;6.80;;;6.10;;
8861;SDS011;4799;50.996;4.754;2023-06-14T09:09:18;7.27;;;6.57;;
8861;SDS011;4799;50.996;4.754;2023-06-14T09:11:51;7.33;;;6.23;;
8861;SDS011;4799;50.996;4.754;2023-06-14T09:14:20;8.53;;;5.80;;
8861;SDS011;4799;50.996;4.754;2023-06-14T09:16:51;7.00;;;5.77;;
8861;SDS011;4799;50.996;4.754;2023-06-14T09:19:21;7.13;;;5.50;;
8861;SDS011;4799;50.996;4.754;2023-06-14T09:21:50;7.67;;;5.50;;
8861;SDS011;4799;50.996;4.754;2023-06-14T09:24:18;6.73;;;5.37;;
8861;SDS011;4799;50.996;4.754;2023-06-14T09:26:47;6.07;;;5.00;;
8861;SDS011;4799;50.996;4.754;2023-06-14T09:29:16;8.07;;;4.97;;
8861;SDS011;4799;50.996;4.754;2023-06-14T09:31:42;8.47;;;5.20;;
8861;SDS011;4799;50.996;4.754;2023-06-14T09:34:10;5.17;;;4.50;;
8861;SDS011;4799;50.996;4.754;2023-06-14T09:36:36;5.67;;;4.63;;
8861;SDS011;4799;50.996;4.754;2023-06-14T09:39:05;6.67;;;4.90;;
8861;SDS011;4799;50.996;4.754;2023-06-14T09:41:34;7.23;;;4.60;;
8861;SDS011;4799;50.996;4.754;2023-06-14T09:44:07;8.33;;;5.30;;
8861;SDS011;4799;50.996;4.754;2023-06-14T09:46:35;7.80;;;5.03;;
8861;SDS011;4799;50.996;4.754;2023-06-14T09:49:02;7.80;;;5.00;;
8861;SDS011;4799;50.996;4.754;2023-06-14T09:51:28;10.67;;;5.13;;
8861;SDS011;4799;50.996;4.754;2023-06-14T09:53:59;5.07;;;4.53;;
8861;SDS011;4799;50.996;4.754;2023-06-14T09:56:34;6.83;;;5.20;;
8861;SDS011;4799;50.996;4.754;2023-06-14T09:59:03;8.53;;;4.70;;
8861;SDS011;4799;50.996;4.754;2023-06-14T10:01:32;7.90;;;5.00;;
8861;SDS011;4799;50.996;4.754;2023-06-14T10:04:06;5.40;;;4.90;;
8861;SDS011;4799;50.996;4.754;2023-06-14T10:06:32;7.50;;;4.60;;
8861;SDS011;4799;50.996;4.754;2023-06-14T10:09:06;5.40;;;4.90;;
8861;SDS011;4799;50.996;4.754;2023-06-14T10:11:33;5.53;;;4.60;;
8861;SDS011;4799;50.996;4.754;2023-06-14T10:14:00;8.27;;;4.63;;
8861;SDS011;4799;50.996;4.754;2023-06-14T10:16:33;6.00;;;4.20;;
8861;SDS011;4799;50.996;4.754;2023-06-14T10:19:11;6.37;;;4.30;;
8861;SDS011;4799;50.996;4.754;2023-06-14T10:21:55;6.63;;;4.60;;
8861;SDS011;4799;50.996;4.754;2023-06-14T10:27:20;7.33;;;4.73;;
8861;SDS011;4799;50.996;4.754;2023-06-14T10:32:18;9.83;;;4.43;;
8861;SDS011;4799;50.996;4.754;2023-06-14T10:34:45;7.03;;;4.27;;
8861;SDS011;4799;50.996;4.754;2023-06-14T10:37:18;5.83;;;4.33;;
8861;SDS011;4799;50.996;4.754;2023-06-14T10:39:44;6.03;;;4.23;;
8861;SDS011;4799;50.996;4.754;2023-06-14T10:42:11;6.90;;;4.30;;
8861;SDS011;4799;50.996;4.754;2023-06-14T10:44:38;6.93;;;4.37;;
8861;SDS011;4799;50.996;4.754;2023-06-14T10:47:23;5.03;;;4.10;;
8861;SDS011;4799;50.996;4.754;2023-06-14T10:50:05;6.90;;;4.00;;
8861;SDS011;4799;50.996;4.754;2023-06-14T10:52:39;4.47;;;4.03;;
8861;SDS011;4799;50.996;4.754;2023-06-14T10:55:10;4.50;;;4.10;;
8861;SDS011;4799;50.996;4.754;2023-06-14T10:57:48;6.93;;;4.07;;
8861;SDS011;4799;50.996;4.754;2023-06-14T11:00:22;5.40;;;3.40;;
8861;SDS011;4799;50.996;4.754;2023-06-14T11:02:52;4.43;;;3.50;;
8861;SDS011;4799;50.996;4.754;2023-06-14T11:05:41;7.67;;;3.90;;
8861;SDS011;4799;50.996;4.754;2023-06-14T11:11:07;7.37;;;3.60;;
8861;SDS011;4799;50.996;4.754;2023-06-14T11:13:34;4.83;;;3.70;;
8861;SDS011;4799;50.996;4.754;2023-06-14T11:16:03;4.53;;;3.63;;
8861;SDS011;4799;50.996;4.754;2023-06-14T11:18:37;5.80;;;3.63;;
8861;SDS011;4799;50.996;4.754;2023-06-14T11:21:02;5.60;;;3.83;;
8861;SDS011;4799;50.996;4.754;2023-06-14T11:23:28;4.47;;;3.57;;
8861;SDS011;4799;50.996;4.754;2023-06-14T11:25:54;6.07;;;3.83;;
8861;SDS011;4799;50.996;4.754;2023-06-14T11:28:20;5.20;;;3.40;;
8861;SDS011;4799;50.996;4.754;2023-06-14T11:30:47;6.03;;;3.80;;
8861;SDS011;4799;50.996;4.754;2023-06-14T11:33:17;4.53;;;4.03;;
8861;SDS011;4799;50.996;4.754;2023-06-14T11:35:46;6.57;;;3.77;;
8861;SDS011;4799;50.996;4.754;2023-06-14T11:38:12;3.97;;;3.63;;
8861;SDS011;4799;50.996;4.754;2023-06-14T11:40:38;6.80;;;3.40;;
8861;SDS011;4799;50.996;4.754;2023-06-14T11:43:04;5.63;;;3.97;;
8861;SDS011;4799;50.996;4.754;2023-06-14T11:45:30;3.47;;;3.20;;
8861;SDS011;4799;50.996;4.754;2023-06-14T11:47:57;4.63;;;3.20;;
8861;SDS011;4799;50.996;4.754;2023-06-14T11:50:23;8.73;;;3.50;;
8861;SDS011;4799;50.996;4.754;2023-06-14T11:52:57;6.53;;;3.63;;
8861;SDS011;4799;50.996;4.754;2023-06-14T11:55:28;4.60;;;3.20;;
8861;SDS011;4799;50.996;4.754;2023-06-14T11:57:54;3.90;;;3.47;;
8861;SDS011;4799;50.996;4.754;2023-06-14T12:00:24;6.13;;;3.70;;
8861;SDS011;4799;50.996;4.754;2023-06-14T12:02:55;3.97;;;3.30;;
8861;SDS011;4799;50.996;4.754;2023-06-14T12:05:22;4.17;;;3.33;;
8861;SDS011;4799;50.996;4.754;2023-06-14T12:07:48;6.77;;;3.60;;
8861;SDS011;4799;50.996;4.754;2023-06-14T12:10:15;4.77;;;3.67;;
8861;SDS011;4799;50.996;4.754;2023-06-14T12:12:42;3.70;;;3.10;;
8861;SDS011;4799;50.996;4.754;2023-06-14T12:15:08;5.40;;;3.30;;
8861;SDS011;4799;50.996;4.754;2023-06-14T12:17:36;3.87;;;3.17;;
8861;SDS011;4799;50.996;4.754;2023-06-14T12:20:07;4.93;;;2.97;;
8861;SDS011;4799;50.996;4.754;2023-06-14T12:22:53;4.07;;;3.00;;
8861;SDS011;4799;50.996;4.754;2023-06-14T12:25:26;4.63;;;2.70;;
8861;SDS011;4799;50.996;4.754;2023-06-14T12:27:55;4.93;;;3.10;;
8861;SDS011;4799;50.996;4.754;2023-06-14T12:30:21;3.27;;;2.57;;
8861;SDS011;4799;50.996;4.754;2023-06-14T12:32:47;4.73;;;2.80;;
8861;SDS011;4799;50.996;4.754;2023-06-14T12:35:13;5.47;;;2.63;;
8861;SDS011;4799;50.996;4.754;2023-06-14T12:37:40;3.17;;;2.63;;
8861;SDS011;4799;50.996;4.754;2023-06-14T12:40:06;5.13;;;2.70;;
8861;SDS011;4799;50.996;4.754;2023-06-14T12:42:32;6.07;;;2.70;;
8861;SDS011;4799;50.996;4.754;2023-06-14T12:44:59;5.87;;;2.53;;
8861;SDS011;4799;50.996;4.754;2023-06-14T12:47:25;2.93;;;2.13;;
8861;SDS011;4799;50.996;4.754;2023-06-14T12:49:51;5.13;;;2.37;;
8861;SDS011;4799;50.996;4.754;2023-06-14T12:52:16;3.03;;;2.50;;
8861;SDS011;4799;50.996;4.754;2023-06-14T12:54:42;2.60;;;2.40;;
8861;SDS011;4799;50.996;4.754;2023-06-14T12:57:08;2.80;;;2.20;;
8861;SDS011;4799;50.996;4.754;2023-06-14T12:59:34;3.67;;;2.50;;
8861;SDS011;4799;50.996;4.754;2023-06-14T13:02:10;4.77;;;2.20;;
8861;SDS011;4799;50.996;4.754;2023-06-14T13:04:36;3.22;;;2.00;;
8861;SDS011;4799;50.996;4.754;2023-06-14T13:07:02;3.57;;;2.20;;
8861;SDS011;4799;50.996;4.754;2023-06-14T13:09:28;2.65;;;1.90;;
8861;SDS011;4799;50.996;4.754;2023-06-14T13:11:53;3.05;;;1.90;;
8861;SDS011;4799;50.996;4.754;2023-06-14T13:14:19;3.67;;;2.10;;
8861;SDS011;4799;50.996;4.754;2023-06-14T13:16:45;2.35;;;2.08;;
8861;SDS011;4799;50.996;4.754;2023-06-14T13:19:10;4.60;;;2.37;;
8861;SDS011;4799;50.996;4.754;2023-06-14T13:21:36;2.65;;;2.00;;
8861;SDS011;4799;50.996;4.754;2023-06-14T13:24:02;3.00;;;1.93;;
8861;SDS011;4799;50.996;4.754;2023-06-14T13:26:28;4.73;;;2.00;;
8861;SDS011;4799;50.996;4.754;2023-06-14T13:28:53;3.45;;;2.13;;
8861;SDS011;4799;50.996;4.754;2023-06-14T13:31:19;2.27;;;2.03;;
8861;SDS011;4799;50.996;4.754;2023-06-14T13:33:45;2.20;;;1.98;;
8861;SDS011;4799;50.996;4.754;2023-06-14T13:36:11;2.97;;;2.00;;
8861;SDS011;4799;50.996;4.754;2023-06-14T13:38:37;2.60;;;1.80;;
8861;SDS011;4799;50.996;4.754;2023-06-14T13:41:02;2.13;;;1.92;;
8861;SDS011;4799;50.996;4.754;2023-06-14T13:43:28;4.60;;;2.30;;
8861;SDS011;4799;50.996;4.754;2023-06-14T13:45:54;3.15;;;2.10;;
8861;SDS011;4799;50.996;4.754;2023-06-14T13:48:19;3.67;;;2.33;;
8861;SDS011;4799;50.996;4.754;2023-06-14T13:50:45;2.70;;;2.00;;
8861;SDS011;4799;50.996;4.754;2023-06-14T13:53:11;6.20;;;2.20;;
8861;SDS011;4799;50.996;4.754;2023-06-14T13:55:37;2.53;;;2.00;;
8861;SDS011;4799;50.996;4.754;2023-06-14T13:58:02;3.07;;;2.03;;
8861;SDS011;4799;50.996;4.754;2023-06-14T14:00:29;5.20;;;2.22;;
8861;SDS011;4799;50.996;4.754;2023-06-14T14:02:55;3.10;;;2.05;;
8861;SDS011;4799;50.996;4.754;2023-06-14T14:05:22;2.30;;;2.05;;
8861;SDS011;4799;50.996;4.754;2023-06-14T14:07:53;2.72;;;2.00;;
8861;SDS011;4799;50.996;4.754;2023-06-14T14:10:19;3.00;;;2.00;;
8861;SDS011;4799;50.996;4.754;2023-06-14T14:12:45;3.30;;;2.33;;
8861;SDS011;4799;50.996;4.754;2023-06-14T14:15:11;4.60;;;2.38;;
8861;SDS011;4799;50.996;4.754;2023-06-14T14:17:39;3.05;;;2.05;;
8861;SDS011;4799;50.996;4.754;2023-06-14T14:20:06;2.95;;;2.17;;
8861;SDS011;4799;50.996;4.754;2023-06-14T14:22:32;5.38;;;2.17;;
8861;SDS011;4799;50.996;4.754;2023-06-14T14:24:58;3.92;;;2.40;;
8861;SDS011;4799;50.996;4.754;2023-06-14T14:27:23;2.50;;;2.10;;
8861;SDS011;4799;50.996;4.754;2023-06-14T14:29:49;5.93;;;2.30;;
8861;SDS011;4799;50.996;4.754;2023-06-14T14:32:15;2.30;;;2.10;;
8861;SDS011;4799;50.996;4.754;2023-06-14T14:34:40;3.10;;;2.40;;
8861;SDS011;4799;50.996;4.754;2023-06-14T14:37:06;3.17;;;2.38;;
8861;SDS011;4799;50.996;4.754;2023-06-14T14:39:32;4.60;;;2.30;;
8861;SDS011;4799;50.996;4.754;2023-06-14T14:41:58;4.13;;;2.00;;
8861;SDS011;4799;50.996;4.754;2023-06-14T14:44:24;3.55;;;2.13;;
8861;SDS011;4799;50.996;4.754;2023-06-14T14:46:50;3.25;;;2.00;;
8861;SDS011;4799;50.996;4.754;2023-06-14T14:49:16;3.70;;;2.25;;
8861;SDS011;4799;50.996;4.754;2023-06-14T14:51:42;2.28;;;2.08;;
8861;SDS011;4799;50.996;4.754;2023-06-14T14:54:07;3.28;;;2.20;;
8861;SDS011;4799;50.996;4.754;2023-06-14T14:56:33;3.70;;;2.22;;
8861;SDS011;4799;50.996;4.754;2023-06-14T14:59:00;3.97;;;2.10;;
8861;SDS011;4799;50.996;4.754;2023-06-14T15:01:26;4.32;;;1.92;;
8861;SDS011;4799;50.996;4.754;2023-06-14T15:03:51;2.35;;;2.15;;
8861;SDS011;4799;50.996;4.754;2023-06-14T15:06:17;3.65;;;2.00;;
8861;SDS011;4799;50.996;4.754;2023-06-14T15:08:43;6.05;;;2.70;;
8861;SDS011;4799;50.996;4.754;2023-06-14T15:11:09;3.40;;;2.13;;
8861;SDS011;4799;50.996;4.754;2023-06-14T15:13:35;4.60;;;2.22;;
8861;SDS011;4799;50.996;4.754;2023-06-14T15:16:01;6.32;;;2.30;;
8861;SDS011;4799;50.996;4.754;2023-06-14T15:18:27;4.63;;;2.35;;
8861;SDS011;4799;50.996;4.754;2023-06-14T15:20:52;4.28;;;1.80;;
8861;SDS011;4799;50.996;4.754;2023-06-14T15:23:18;2.38;;;1.90;;
8861;SDS011;4799;50.996;4.754;2023-06-14T15:25:45;3.45;;;1.83;;
8861;SDS011;4799;50.996;4.754;2023-06-14T15:28:14;5.25;;;1.80;;
8861;SDS011;4799;50.996;4.754;2023-06-14T15:30:39;4.18;;;2.20;;